メインページ
METAR-TAF:

METAR-TAF

空港 :

大湊警備府

むつ, 日本

緯度: 41-14N, 経度: 141-08E, 海抜: 7m

現時点の気象観測

当レポートは6時間52分前の15:36(UTC)に作成
西の風 4kt、南西から北西の間で変化する
気温 9°C
湿度 87%
気圧 1014 hPa
視程10km以上
高度1000ftの雲はほとんどない
高度2000ftの千切れ雲あり
高度3500ftの曇り
弱いにわか雨

METAR: RJSO 161536Z 27004KT 220V320 9999 -SHRA FEW010 BKN020 OVC035 09/07 Q1014 RMK 2ST010 5CU020 8CU035 A2995

時間: 07:28 (22:28 UTC)


TAF: 見つかりません

4,000以上の空港の気象観測と天気予報(METAR報とTAF報)

利用可能な観測所は地図上に黄色い丸と赤い丸で示す。

丸の上にカーソルを重ねると観測所名を参照できる。

次にクリックすると気象観測と天気予報を参照できる。

マップの切り替え:黒色「×」印の緑ボタンをクリックして拡大、「-」印の緑ボタンをクリックして縮小、緑色の三角印をクリックして隣りの地図に切り替え


METAR-TAF: